Time;durP1;ratioP1;P1;durP2;ratioP2;P2;SDS_P1;SDS_P2;PMS_P1;PMS_P2;Temp;Humidity;BMP_temperature;BMP_pressure;BME280_temperature;BME280_humidity;BME280_pressure;Samples;Min_cycle;Max_cycle;Signal;HPM_P1;HPM_P2
2022/01/24 00:01:39;;;;;;;18.55;12.00;;;;;;;5.47;88.39;103590.34;5084955;28;20563;-78
2022/01/24 00:04:05;;;;;;;17.85;11.00;;;;;;;5.45;88.71;103584.94;5080201;28;20032;-78
2022/01/24 00:06:32;;;;;;;17.05;10.68;;;;;;;5.44;88.85;103590.06;5078935;28;20044;-78
2022/01/24 00:08:59;;;;;;;16.98;11.18;;;;;;;5.43;89.02;103593.47;5085780;28;20384;-78
2022/01/24 00:11:30;;;;;;;15.50;10.90;;;;;;;5.42;89.24;103596.88;5100574;28;20494;-78
2022/01/24 00:16:59;;;;;;;16.60;10.43;;;;;;;5.39;88.82;103582.75;5106256;28;20127;-78
2022/01/24 00:27:14;;;;;;;23.98;13.45;;;;;;;5.38;89.52;103582.63;5100260;28;20541;-77
2022/01/24 00:29:40;;;;;;;20.00;13.20;;;;;;;5.37;89.58;103583.41;5087411;28;20024;-77
2022/01/24 00:32:06;;;;;;;22.08;14.30;;;;;;;5.37;89.31;103580.81;5081983;28;20077;-78
2022/01/24 00:34:32;;;;;;;19.27;13.52;;;;;;;5.39;87.84;103582.75;5087841;28;20067;-77
2022/01/24 00:36:57;;;;;;;20.08;13.05;;;;;;;5.43;87.87;103577.81;5100752;28;20048;-77
2022/01/24 00:39:23;;;;;;;18.67;13.13;;;;;;;5.44;88.67;103584.84;5105211;28;20035;-77
2022/01/24 00:42:02;;;;;;;21.02;13.43;;;;;;;5.42;90.18;103578.59;5100861;28;20024;-76
2022/01/24 00:47:09;;;;;;;19.10;12.55;;;;;;;5.42;89.12;103575.97;5097101;28;20745;-78
2022/01/24 00:49:49;;;;;;;23.70;14.30;;;;;;;5.40;89.22;103573.25;5088064;28;20073;-78
2022/01/24 00:55:04;;;;;;;23.05;13.98;;;;;;;5.37;90.94;103573.91;5098675;28;20133;-79
2022/01/24 00:57:30;;;;;;;24.05;14.70;;;;;;;5.37;88.21;103568.69;5083094;28;20432;-78
2022/01/24 00:59:55;;;;;;;23.02;14.48;;;;;;;5.38;88.66;103570.47;5083567;28;20108;-80
2022/01/24 01:02:20;;;;;;;26.27;14.65;;;;;;;5.38;89.54;103574.81;5103663;28;20388;-78
2022/01/24 01:07:12;;;;;;;20.65;14.20;;;;;;;5.36;90.39;103573.78;5102968;28;20032;-77
2022/01/24 01:20:51;;;;;;;19.13;13.32;;;;;;;5.31;91.17;103578.59;5099173;28;20035;-78
2022/01/24 01:23:16;;;;;;;24.65;14.95;;;;;;;5.32;89.37;103570.00;5104257;28;20073;-79
2022/01/24 01:25:43;;;;;;;23.33;15.73;;;;;;;5.33;90.50;103581.34;5100959;28;20063;-78
2022/01/24 01:28:09;;;;;;;25.23;14.52;;;;;;;5.32;91.99;103580.44;5095051;28;20028;-78
2022/01/24 01:30:41;;;;;;;24.27;13.88;;;;;;;5.33;95.16;103590.09;5105139;28;20145;-78
2022/01/24 01:33:15;;;;;;;22.23;14.77;;;;;;;5.30;94.90;103571.56;5080948;28;20043;-78
2022/01/24 01:57:01;;;;;;;27.20;16.02;;;;;;;5.34;90.45;103563.19;5096027;28;20028;-78
2022/01/24 01:59:27;;;;;;;29.50;16.10;;;;;;;5.34;90.76;103572.72;5106745;28;20027;-78
2022/01/24 02:01:52;;;;;;;25.45;15.85;;;;;;;5.33;91.13;103570.91;5086338;28;20088;-79
2022/01/24 02:04:19;;;;;;;25.33;15.40;;;;;;;5.32;94.12;103572.59;5079967;28;20024;-78
2022/01/24 02:06:44;;;;;;;29.38;16.23;;;;;;;5.31;95.16;103580.31;5075883;28;20050;-78
2022/01/24 02:09:11;;;;;;;26.65;15.98;;;;;;;5.27;94.00;103573.94;5080780;28;20028;-77
2022/01/24 02:11:37;;;;;;;26.98;16.02;;;;;;;5.27;94.40;103566.09;5098319;28;20047;-78
2022/01/24 02:14:07;;;;;;;27.80;15.63;;;;;;;5.27;96.30;103568.69;5089055;28;20058;-77
2022/01/24 02:19:24;;;;;;;27.38;16.83;;;;;;;5.22;97.21;103572.63;5094971;28;20106;-77
2022/01/24 02:24:40;;;;;;;26.27;15.85;;;;;;;5.17;96.55;103560.91;5097749;28;20044;-78
2022/01/24 02:27:06;;;;;;;25.45;16.17;;;;;;;5.16;97.04;103559.97;5101475;28;20032;-78
2022/01/24 02:32:09;;;;;;;29.67;17.65;;;;;;;5.13;96.42;103556.19;5104022;28;20471;-78
2022/01/24 02:34:39;;;;;;;28.55;17.55;;;;;;;5.12;97.07;103549.19;5078449;28;20047;-77
2022/01/24 02:37:08;;;;;;;31.80;17.05;;;;;;;5.13;96.60;103556.19;5085930;28;20524;-78
2022/01/24 02:50:39;;;;;;;28.38;17.27;;;;;;;5.10;96.11;103549.06;5100624;28;20086;-77
2022/01/24 02:53:05;;;;;;;31.70;18.38;;;;;;;5.09;95.80;103543.69;5103484;28;20106;-78
2022/01/24 02:55:32;;;;;;;31.10;17.30;;;;;;;5.10;95.82;103545.50;5077357;28;20111;-77
2022/01/24 02:57:57;;;;;;;31.95;19.13;;;;;;;5.11;96.35;103544.75;5094655;28;20375;-78
2022/01/24 03:00:22;;;;;;;36.03;19.95;;;;;;;5.12;96.77;103543.97;5078590;28;20032;-77
2022/01/24 03:02:48;;;;;;;38.95;19.90;;;;;;;5.12;97.35;103551.78;5081403;28;20079;-79
2022/01/24 03:05:13;;;;;;;32.00;18.73;;;;;;;5.12;98.35;103541.34;5097743;28;20058;-78
2022/01/24 03:07:39;;;;;;;38.65;20.95;;;;;;;5.11;98.48;103544.75;5087706;28;20024;-79
2022/01/24 03:10:12;;;;;;;30.25;18.58;;;;;;;5.10;98.18;103538.63;5102012;28;20027;-78
2022/01/24 03:12:57;;;;;;;32.58;18.00;;;;;;;5.10;98.21;103537.69;5078250;28;20093;-77
2022/01/24 03:15:22;;;;;;;38.25;19.02;;;;;;;5.07;97.98;103534.06;5079062;28;20032;-77
2022/01/24 03:17:48;;;;;;;32.25;18.63;;;;;;;5.09;98.86;103538.47;5102232;28;20032;-76
2022/01/24 03:20:13;;;;;;;36.65;19.38;;;;;;;5.07;99.30;103536.66;5099420;28;20119;-78
2022/01/24 03:22:38;;;;;;;34.05;20.00;;;;;;;5.06;98.72;103532.22;5083461;28;20039;-77
2022/01/24 03:25:04;;;;;;;33.72;20.33;;;;;;;5.06;98.29;103534.84;5096384;28;20032;-79
2022/01/24 03:27:29;;;;;;;33.97;19.88;;;;;;;5.04;98.36;103533.78;5087456;28;20446;-78
2022/01/24 03:29:55;;;;;;;37.33;21.60;;;;;;;5.05;96.96;103527.78;5077985;28;20026;-78
2022/01/24 03:32:20;;;;;;;35.55;20.20;;;;;;;5.06;98.10;103519.16;5104807;28;20088;-78
2022/01/24 03:34:45;;;;;;;39.70;21.38;;;;;;;5.05;96.73;103522.56;5076277;28;20115;-78
2022/01/24 03:37:11;;;;;;;37.90;21.10;;;;;;;5.05;96.00;103519.94;5105806;28;20047;-77
2022/01/24 03:39:36;;;;;;;35.65;21.30;;;;;;;5.06;94.75;103513.94;5082604;28;20035;-77
2022/01/24 03:42:01;;;;;;;36.03;21.73;;;;;;;5.06;95.04;103513.94;5098537;28;20030;-78
2022/01/24 03:44:28;;;;;;;38.15;22.45;;;;;;;5.07;96.13;103513.19;5096228;28;20376;-77
2022/01/24 03:47:13;;;;;;;35.10;21.65;;;;;;;5.06;95.49;103519.16;5100401;28;20044;-78
2022/01/24 03:49:52;;;;;;;38.75;23.55;;;;;;;5.08;95.05;103521.91;5101586;28;20020;-78
2022/01/24 03:52:18;;;;;;;38.92;22.48;;;;;;;5.09;93.86;103514.97;5087004;28;20036;-79
2022/01/24 03:54:45;;;;;;;38.45;21.58;;;;;;;5.09;92.63;103518.50;5109143;28;20399;-77
2022/01/24 03:57:15;;;;;;;36.03;21.65;;;;;;;5.14;92.16;103516.28;5084811;28;20024;-78
2022/01/24 03:59:41;;;;;;;40.40;21.85;;;;;;;5.14;91.15;103526.72;5088215;28;20133;-78
2022/01/24 04:02:07;;;;;;;37.03;21.50;;;;;;;5.15;91.96;103512.88;5107926;28;20476;-78
2022/01/24 04:04:33;;;;;;;35.53;21.55;;;;;;;5.15;91.42;103515.50;5103523;28;20039;-78
2022/01/24 04:06:58;;;;;;;40.50;23.75;;;;;;;5.14;93.02;103514.59;5109181;28;20039;-79
2022/01/24 04:09:23;;;;;;;34.10;21.15;;;;;;;5.12;94.02;103513.53;5088533;28;20030;-77
2022/01/24 04:11:55;;;;;;;36.65;21.35;;;;;;;5.11;93.39;103516.03;5097300;28;20063;-77
2022/01/24 04:17:20;;;;;;;34.05;20.35;;;;;;;5.10;95.21;103519.41;5103129;28;20120;-78
2022/01/24 04:22:33;;;;;;;34.72;21.40;;;;;;;5.04;94.15;103519.81;5098837;28;20108;-77
2022/01/24 04:25:06;;;;;;;34.60;20.85;;;;;;;5.03;93.95;103518.94;5106162;28;20039;-78
2022/01/24 04:27:32;;;;;;;35.30;20.77;;;;;;;5.02;93.51;103519.72;5082854;28;20340;-78
2022/01/24 04:29:57;;;;;;;37.65;22.42;;;;;;;5.03;95.13;103518.94;5105022;28;20112;-77
2022/01/24 04:32:23;;;;;;;32.85;19.67;;;;;;;5.00;95.98;103526.47;5087716;28;20082;-78
2022/01/24 04:34:52;;;;;;;38.58;20.48;;;;;;;4.99;96.37;103527.28;5109566;28;20039;-77
2022/01/24 04:37:17;;;;;;;34.33;20.83;;;;;;;4.98;95.83;103525.47;5098727;28;20477;-78
2022/01/24 04:39:44;;;;;;;36.58;21.15;;;;;;;4.98;95.41;103519.31;5096216;28;20020;-78
2022/01/24 04:42:15;;;;;;;33.22;20.60;;;;;;;4.98;93.57;103515.03;5099998;28;20115;-77
2022/01/24 04:52:58;;;;;;;34.90;20.75;;;;;;;4.99;92.80;103509.03;5106247;28;19918;-78
2022/01/24 04:55:24;;;;;;;34.85;20.45;;;;;;;4.99;93.30;103506.41;5078754;28;20395;-77
2022/01/24 04:57:49;;;;;;;35.72;20.50;;;;;;;5.00;92.39;103510.81;5105984;28;20023;-77
2022/01/24 05:00:14;;;;;;;36.08;21.38;;;;;;;4.99;93.66;103503.81;5099147;28;20089;-78
2022/01/24 05:02:40;;;;;;;36.17;21.35;;;;;;;5.00;92.68;103502.09;5096921;28;20034;-79
2022/01/24 05:05:08;;;;;;;32.42;19.67;;;;;;;4.98;92.62;103504.59;5105092;28;20082;-79
2022/01/24 05:07:34;;;;;;;36.10;21.73;;;;;;;4.99;91.13;103506.41;5077615;28;20031;-79
2022/01/24 05:23:35;;;;;;;36.40;21.25;;;;;;;5.01;90.78;103497.00;5097747;28;20051;-79
2022/01/24 05:26:05;;;;;;;33.92;21.13;;;;;;;5.02;91.47;103500.53;5078768;28;20145;-76
2022/01/24 05:28:31;;;;;;;32.85;21.30;;;;;;;5.02;91.24;103498.84;5086955;28;20089;-77
2022/01/24 05:30:58;;;;;;;37.97;21.80;;;;;;;5.02;91.07;103500.53;5098621;28;20107;-77
2022/01/24 05:33:24;;;;;;;37.65;22.58;;;;;;;5.05;91.72;103506.91;5081211;28;20055;-78
2022/01/24 05:35:50;;;;;;;35.97;22.70;;;;;;;5.03;90.79;103502.34;5106574;28;20474;-77
2022/01/24 05:38:15;;;;;;;35.08;22.08;;;;;;;5.03;90.55;103498.06;5096687;28;20032;-78
2022/01/24 05:40:41;;;;;;;39.80;22.90;;;;;;;5.02;91.42;103509.28;5091201;28;20027;-77
2022/01/24 05:43:07;;;;;;;40.08;23.05;;;;;;;5.01;92.56;103504.81;5078704;28;20032;-79
2022/01/24 05:45:33;;;;;;;42.70;24.98;;;;;;;4.97;94.58;103507.97;5098429;28;20035;-80
2022/01/24 05:47:58;;;;;;;42.05;23.98;;;;;;;4.96;94.46;103507.84;5080940;28;20089;-78
2022/01/24 05:50:24;;;;;;;44.00;24.00;;;;;;;4.95;93.98;103499.13;5097129;28;20039;-78
2022/01/24 05:52:49;;;;;;;43.28;25.02;;;;;;;4.95;94.43;103506.94;5081713;28;20043;-78
2022/01/24 05:55:15;;;;;;;43.92;26.83;;;;;;;4.94;95.56;103506.78;5084227;28;20537;-77
2022/01/24 05:57:40;;;;;;;46.10;26.92;;;;;;;4.92;94.65;103509.28;5097622;28;20537;-75
2022/01/24 06:00:09;;;;;;;48.88;27.13;;;;;;;4.93;96.16;103511.13;5102946;28;20043;-76
2022/01/24 06:02:34;;;;;;;47.60;26.88;;;;;;;4.92;95.72;103518.81;5080026;28;20032;-76
2022/01/24 06:04:59;;;;;;;48.72;26.77;;;;;;;4.90;96.49;103516.09;5091198;28;20122;-77
2022/01/24 06:07:24;;;;;;;44.90;25.98;;;;;;;4.90;96.18;103523.91;5099100;28;20416;-76
2022/01/24 06:09:51;;;;;;;48.92;27.90;;;;;;;4.89;96.11;103522.09;5079879;28;20093;-76
2022/01/24 06:12:16;;;;;;;45.15;26.30;;;;;;;4.87;96.88;103532.41;5095424;28;20490;-76
2022/01/24 06:14:42;;;;;;;50.47;27.35;;;;;;;4.86;96.51;103525.34;5081549;28;20027;-80
2022/01/24 06:17:10;;;;;;;47.72;26.98;;;;;;;4.85;96.03;103536.56;5079363;28;20035;-78
2022/01/24 06:19:36;;;;;;;46.72;26.75;;;;;;;4.84;94.81;103526.94;5100464;28;20468;-77
2022/01/24 06:22:02;;;;;;;51.88;27.15;;;;;;;4.82;93.10;103523.25;5077241;28;20031;-78
2022/01/24 06:24:27;;;;;;;47.45;27.77;;;;;;;4.83;93.17;103527.72;5082272;28;20411;-76
2022/01/24 06:26:52;;;;;;;55.20;29.20;;;;;;;4.86;93.50;103527.06;5078825;28;20020;-76
2022/01/24 06:29:18;;;;;;;54.33;28.65;;;;;;;4.85;92.88;103527.81;5080739;28;20170;-78
2022/01/24 06:31:44;;;;;;;51.58;28.23;;;;;;;4.89;93.08;103524.69;5103728;28;20050;-77
2022/01/24 06:34:09;;;;;;;58.97;31.13;;;;;;;4.86;93.27;103529.66;5105647;28;20035;-77
2022/01/24 06:36:34;;;;;;;54.92;30.13;;;;;;;4.85;93.77;103533.03;5102402;28;20115;-78
2022/01/24 06:39:01;;;;;;;56.65;30.73;;;;;;;4.87;93.75;103527.19;5095428;28;20181;-77
2022/01/24 06:41:32;;;;;;;57.08;30.55;;;;;;;4.86;93.90;103535.78;5077350;28;20023;-77
2022/01/24 06:43:57;;;;;;;57.80;31.92;;;;;;;4.84;94.76;103526.00;5102268;28;20035;-77
2022/01/24 06:46:23;;;;;;;60.90;32.88;;;;;;;4.82;95.34;103530.19;5074085;28;20034;-76
2022/01/24 06:48:48;;;;;;;63.47;32.50;;;;;;;4.80;95.57;103529.13;5085239;28;20160;-77
2022/01/24 06:51:17;;;;;;;59.03;31.75;;;;;;;4.80;95.99;103529.13;5084895;28;20396;-77
2022/01/24 06:53:42;;;;;;;60.70;32.35;;;;;;;4.76;96.31;103535.81;5096983;28;20044;-78
2022/01/24 06:56:08;;;;;;;63.85;32.97;;;;;;;4.76;97.14;103535.81;5084303;28;20054;-78
2022/01/24 06:58:34;;;;;;;60.80;32.08;;;;;;;4.75;96.40;103527.84;5100726;28;20479;-76
2022/01/24 07:01:01;;;;;;;64.60;34.30;;;;;;;4.73;96.59;103532.94;5075670;28;20019;-78
2022/01/24 07:03:26;;;;;;;60.22;33.35;;;;;;;4.72;96.70;103542.47;5101035;28;20027;-77
2022/01/24 07:05:52;;;;;;;64.95;33.63;;;;;;;4.71;97.13;103555.38;5099887;28;20480;-77
2022/01/24 07:08:17;;;;;;;65.35;34.40;;;;;;;4.72;97.24;103547.69;5095091;28;20727;-73
2022/01/24 07:10:43;;;;;;;71.15;34.80;;;;;;;4.71;96.95;103548.44;5106925;28;20059;-73
2022/01/24 07:13:08;;;;;;;67.57;35.28;;;;;;;4.70;96.30;103543.09;5097606;28;20073;-73
2022/01/24 07:15:38;;;;;;;66.97;35.10;;;;;;;4.68;95.97;103543.00;5082716;28;20439;-73
2022/01/24 07:20:29;;;;;;;66.05;35.15;;;;;;;4.66;96.87;103551.47;5094200;28;20028;-74
2022/01/24 07:22:54;;;;;;;57.70;31.42;;;;;;;4.66;96.15;103556.69;5102723;28;20055;-74
2022/01/24 07:25:21;;;;;;;61.30;31.15;;;;;;;4.65;92.89;103553.16;5105255;28;20110;-75
2022/01/24 07:27:47;;;;;;;63.78;34.25;;;;;;;4.65;93.28;103550.56;5097129;28;20472;-74
2022/01/24 07:30:12;;;;;;;61.67;35.47;;;;;;;4.64;93.57;103563.44;5102650;28;20066;-73
2022/01/24 07:32:38;;;;;;;65.75;33.33;;;;;;;4.63;94.31;103567.75;5101642;28;20023;-73
2022/01/24 07:35:04;;;;;;;64.03;33.80;;;;;;;4.64;93.97;103573.88;5100476;28;20953;-74
2022/01/24 07:37:29;;;;;;;68.78;37.17;;;;;;;4.63;93.93;103572.97;5079685;28;20423;-74
2022/01/24 07:39:55;;;;;;;67.00;35.63;;;;;;;4.62;94.45;103571.13;5105604;28;20035;-74
2022/01/24 07:42:51;;;;;;;67.43;35.22;;;;;;;4.61;93.40;103579.75;5105001;28;20016;-73
2022/01/24 07:45:15;;;;;;;63.60;33.88;;;;;;;4.62;93.29;103575.47;5102441;28;20441;-74
2022/01/24 07:47:40;;;;;;;67.18;35.38;;;;;;;4.62;94.09;103575.47;5102367;28;20063;-71
2022/01/24 07:50:06;;;;;;;68.28;36.08;;;;;;;4.62;93.50;103585.88;5100007;28;20107;-72
2022/01/24 07:52:31;;;;;;;71.30;35.47;;;;;;;4.60;94.53;103582.22;5098313;28;20028;-72
2022/01/24 07:54:57;;;;;;;68.32;36.90;;;;;;;4.59;96.10;103583.03;5093435;28;20038;-72
2022/01/24 07:57:22;;;;;;;69.82;35.95;;;;;;;4.58;94.47;103576.88;5101759;28;20031;-73
2022/01/24 07:59:47;;;;;;;64.38;33.78;;;;;;;4.59;94.49;103572.59;5102862;28;20048;-72
2022/01/24 08:02:13;;;;;;;60.40;33.08;;;;;;;4.60;94.63;103580.53;5093755;28;20024;-73
2022/01/24 08:04:38;;;;;;;68.50;35.38;;;;;;;4.61;95.02;103584.94;5099090;28;20107;-73
2022/01/24 08:07:03;;;;;;;59.08;32.55;;;;;;;4.61;94.38;103590.16;5099582;28;20032;-72
2022/01/24 08:09:29;;;;;;;59.67;31.63;;;;;;;4.60;92.68;103580.53;5100933;28;20089;-73
2022/01/24 08:11:54;;;;;;;58.58;31.60;;;;;;;4.61;92.33;103574.53;5105097;28;20032;-72
2022/01/24 08:14:20;;;;;;;60.65;32.88;;;;;;;4.63;92.94;103578.19;5077631;28;20077;-72
2022/01/24 08:16:45;;;;;;;54.20;29.83;;;;;;;4.63;92.14;103582.50;5099403;28;20103;-72
2022/01/24 08:19:10;;;;;;;63.15;31.30;;;;;;;4.65;91.14;103576.63;5101911;28;20051;-73
2022/01/24 08:21:36;;;;;;;62.50;32.55;;;;;;;4.64;90.43;103577.41;5085884;28;20028;-72
2022/01/24 08:24:02;;;;;;;54.22;29.00;;;;;;;4.64;89.94;103581.69;5084239;28;20024;-71
2022/01/24 08:26:27;;;;;;;58.97;30.75;;;;;;;4.64;89.90;103581.69;5084632;28;20038;-72
2022/01/24 08:28:53;;;;;;;61.95;32.55;;;;;;;4.66;90.38;103582.75;5104801;28;20118;-72
2022/01/24 08:31:19;;;;;;;56.60;31.02;;;;;;;4.64;90.54;103586.91;5089966;28;20148;-72
2022/01/24 08:33:45;;;;;;;48.25;27.10;;;;;;;4.65;88.87;103586.13;5108938;28;20031;-71
2022/01/24 08:36:10;;;;;;;46.08;26.45;;;;;;;4.65;87.92;103576.63;5084899;28;20472;-72
2022/01/24 08:38:36;;;;;;;49.42;28.02;;;;;;;4.65;87.28;103566.22;5101575;27;20102;-72
2022/01/24 08:41:09;;;;;;;49.90;26.35;;;;;;;4.67;86.76;103569.84;5101749;28;20372;-72
2022/01/24 08:44:00;;;;;;;44.70;25.77;;;;;;;4.67;87.51;103575.06;5091853;28;20035;-72
2022/01/24 08:46:26;;;;;;;47.95;25.83;;;;;;;4.68;87.55;103581.19;5106857;27;20387;-72
2022/01/24 08:48:52;;;;;;;47.58;26.67;;;;;;;4.67;87.68;103580.28;5111021;27;20375;-72
2022/01/24 08:51:17;;;;;;;48.28;27.00;;;;;;;4.70;87.28;103569.19;5112894;27;20035;-72
2022/01/24 08:53:43;;;;;;;51.50;27.52;;;;;;;4.72;87.61;103578.97;5105180;27;20152;-73
2022/01/24 08:56:11;;;;;;;53.60;29.50;;;;;;;4.69;88.76;103573.50;5115451;27;20059;-70
2022/01/24 08:58:37;;;;;;;52.70;28.10;;;;;;;4.73;88.12;103578.19;5106103;27;20038;-73
2022/01/24 09:01:03;;;;;;;54.33;29.45;;;;;;;4.73;88.30;103569.44;5098091;28;20015;-72
2022/01/24 09:03:32;;;;;;;55.35;29.35;;;;;;;4.75;88.07;103577.38;5106849;27;20042;-71
2022/01/24 09:06:00;;;;;;;59.97;32.30;;;;;;;4.75;88.85;103578.31;5106576;28;20023;-72
2022/01/24 09:08:25;;;;;;;58.17;31.90;;;;;;;4.76;89.72;103584.44;5109223;28;20118;-73
2022/01/24 09:10:52;;;;;;;59.88;30.35;;;;;;;4.77;91.07;103588.88;5118505;27;20545;-73
2022/01/24 09:13:19;;;;;;;62.67;33.25;;;;;;;4.77;90.67;103587.19;5098456;27;20051;-73
2022/01/24 09:15:45;;;;;;;58.53;31.17;;;;;;;4.78;89.63;103577.69;5091951;28;20032;-72
2022/01/24 09:18:10;;;;;;;61.17;31.15;;;;;;;4.80;89.63;103583.91;5089088;28;20064;-72
2022/01/24 09:20:38;;;;;;;57.53;31.10;;;;;;;4.82;90.46;103584.97;5106823;27;20456;-73
2022/01/24 09:23:05;;;;;;;57.47;30.77;;;;;;;4.81;89.39;103584.03;5103427;27;20062;-72
2022/01/24 09:25:30;;;;;;;53.25;29.25;;;;;;;4.83;88.15;103584.16;5089620;27;20669;-72
2022/01/24 09:27:55;;;;;;;48.40;27.20;;;;;;;4.79;87.57;103580.41;5102981;27;20088;-73
2022/01/24 09:30:23;;;;;;;50.55;28.15;;;;;;;4.81;90.35;103583.16;5102320;27;20487;-73
2022/01/24 09:32:49;;;;;;;54.30;28.60;;;;;;;4.84;90.04;103588.59;5103989;27;20043;-73
2022/01/24 09:35:15;;;;;;;45.13;26.08;;;;;;;4.83;89.41;103589.38;5101546;27;20377;-72
2022/01/24 09:37:41;;;;;;;47.00;26.50;;;;;;;4.86;90.65;103594.88;5109437;27;20106;-72
2022/01/24 09:40:08;;;;;;;45.45;26.10;;;;;;;4.88;89.70;103595.91;5105188;27;20028;-72
2022/01/24 09:42:33;;;;;;;51.53;28.58;;;;;;;4.88;88.64;103590.69;5085094;28;20530;-72
2022/01/24 09:44:59;;;;;;;46.75;26.08;;;;;;;4.90;89.23;103594.34;5102282;27;20058;-72
2022/01/24 09:47:24;;;;;;;46.42;26.42;;;;;;;4.89;89.04;103597.75;5101536;27;20156;-72
2022/01/24 09:49:51;;;;;;;42.22;25.00;;;;;;;4.88;86.92;103595.91;5102470;27;20019;-73
2022/01/24 09:52:17;;;;;;;43.22;24.30;;;;;;;4.86;85.81;103593.19;5107606;27;20502;-73
2022/01/24 09:54:43;;;;;;;45.38;24.70;;;;;;;4.86;85.68;103587.06;5106134;27;20024;-73
2022/01/24 09:57:08;;;;;;;43.00;24.88;;;;;;;4.86;86.32;103590.56;5102459;27;20088;-71
2022/01/24 09:59:34;;;;;;;43.33;25.45;;;;;;;4.90;87.41;103600.47;5093143;27;20026;-72
2022/01/24 10:02:00;;;;;;;44.83;26.30;;;;;;;4.90;87.86;103599.56;5083721;28;20031;-72
2022/01/24 10:04:26;;;;;;;44.85;25.25;;;;;;;4.91;87.82;103604.03;5095647;27;20479;-72
2022/01/24 10:07:02;;;;;;;44.47;25.88;;;;;;;4.93;87.93;103599.81;5111531;27;20383;-73
2022/01/24 10:09:35;;;;;;;46.30;25.35;;;;;;;4.98;88.41;103602.81;5077521;27;20032;-72
2022/01/24 10:12:12;;;;;;;47.97;25.50;;;;;;;5.04;87.93;103604.25;5083455;28;20047;-73
2022/01/24 10:17:28;;;;;;;46.03;26.75;;;;;;;5.06;86.97;103597.47;5103657;27;20054;-72
2022/01/24 10:19:54;;;;;;;44.92;25.55;;;;;;;5.10;87.19;103600.31;5108225;27;20019;-73
2022/01/24 10:22:25;;;;;;;44.80;25.77;;;;;;;5.10;87.80;103597.72;5097961;27;20104;-72
2022/01/24 10:24:54;;;;;;;47.53;25.23;;;;;;;5.12;87.86;103601.38;5099806;27;20384;-72
2022/01/24 10:27:29;;;;;;;48.97;25.90;;;;;;;5.14;88.33;103611.16;5086047;27;20397;-72
2022/01/24 10:29:57;;;;;;;46.45;26.42;;;;;;;5.18;88.74;103602.81;5095243;27;20032;-74
2022/01/24 10:32:49;;;;;;;45.58;25.75;;;;;;;5.30;88.10;103602.00;5086120;28;20486;-72
2022/01/24 10:35:34;;;;;;;45.47;25.80;;;;;;;5.25;86.44;103604.22;5107903;27;20526;-72
2022/01/24 10:38:21;;;;;;;44.53;26.17;;;;;;;5.22;85.73;103593.50;5099350;27;20040;-73
2022/01/24 10:40:51;;;;;;;49.55;27.55;;;;;;;5.23;87.62;103598.84;5099977;27;20144;-72
2022/01/24 10:43:25;;;;;;;52.58;28.15;;;;;;;5.28;87.69;103594.03;5097327;27;20028;-72
2022/01/24 10:45:54;;;;;;;48.50;27.88;;;;;;;5.25;85.77;103593.78;5106106;27;20035;-72
2022/01/24 10:48:28;;;;;;;50.25;29.30;;;;;;;5.23;86.20;103591.03;5100430;27;20424;-73
2022/01/24 10:51:16;;;;;;;51.78;30.15;;;;;;;5.25;88.51;103593.78;5098800;27;20099;-72
2022/01/24 10:53:45;;;;;;;50.47;28.15;;;;;;;5.27;85.27;103586.97;5085374;27;20042;-73
2022/01/24 10:56:28;;;;;;;51.38;30.60;;;;;;;5.29;86.21;103582.81;5094708;28;20024;-73
2022/01/24 10:59:00;;;;;;;57.53;30.30;;;;;;;5.34;87.79;103584.06;5102673;28;20034;-73
2022/01/24 11:01:27;;;;;;;53.20;30.33;;;;;;;5.39;86.87;103584.47;5109972;27;20383;-73
2022/01/24 11:04:06;;;;;;;52.58;29.67;;;;;;;5.42;85.46;103573.38;5107424;27;20027;-72
2022/01/24 11:06:37;;;;;;;57.03;31.02;;;;;;;5.44;86.41;103574.38;5116541;27;20337;-72
2022/01/24 11:09:10;;;;;;;56.65;30.48;;;;;;;5.47;85.99;103572.06;5098916;28;20119;-72
2022/01/24 11:11:36;;;;;;;50.90;29.25;;;;;;;5.43;84.81;103568.28;5107175;28;20068;-72
2022/01/24 11:14:01;;;;;;;55.60;29.70;;;;;;;5.51;83.96;103561.06;5101311;27;20085;-72
2022/01/24 11:16:26;;;;;;;53.65;30.67;;;;;;;5.52;82.85;103563.78;5097421;28;20477;-72
2022/01/24 11:18:52;;;;;;;57.88;31.30;;;;;;;5.49;83.26;103557.41;5081771;28;20100;-72
2022/01/24 11:21:17;;;;;;;54.15;30.23;;;;;;;5.50;85.88;103559.22;5090335;27;20111;-72
2022/01/24 11:23:44;;;;;;;55.53;31.05;;;;;;;5.49;85.84;103557.41;5097739;28;20454;-72
2022/01/24 11:26:11;;;;;;;54.20;31.77;;;;;;;5.47;84.78;103553.78;5101403;28;20028;-72
2022/01/24 11:28:37;;;;;;;56.33;33.17;;;;;;;5.49;85.30;103553.06;5083367;28;20028;-72
2022/01/24 11:31:27;;;;;;;56.08;30.92;;;;;;;5.53;83.66;103549.03;5109108;28;20027;-73
2022/01/24 11:34:20;;;;;;;57.85;31.73;;;;;;;5.50;83.43;103548.78;5100886;28;20027;-72
2022/01/24 11:36:45;;;;;;;55.90;30.65;;;;;;;5.50;84.37;103548.78;5099385;28;20509;-72
2022/01/24 11:39:11;;;;;;;57.30;33.42;;;;;;;5.53;86.57;103551.63;5098150;28;20026;-72
2022/01/24 11:41:39;;;;;;;62.47;32.17;;;;;;;5.58;87.13;103555.53;5112606;28;20485;-72
2022/01/24 11:44:10;;;;;;;54.85;31.88;;;;;;;5.60;85.10;103542.59;5086715;28;20376;-73
2022/01/24 11:46:48;;;;;;;58.58;31.75;;;;;;;5.52;85.43;103547.19;5096934;28;20052;-73
2022/01/24 11:49:22;;;;;;;61.67;33.65;;;;;;;5.57;85.43;103545.88;5107029;28;20525;-72
2022/01/24 11:51:50;;;;;;;58.38;32.55;;;;;;;5.58;85.77;103545.09;5104456;28;20032;-72
2022/01/24 11:54:32;;;;;;;55.53;31.23;;;;;;;5.64;85.63;103548.19;5093402;28;20055;-73
2022/01/24 11:57:22;;;;;;;61.88;33.28;;;;;;;5.60;86.17;103542.59;5094921;28;20376;-73
2022/01/24 12:00:10;;;;;;;63.42;33.17;;;;;;;5.60;86.40;103543.50;5078104;28;20028;-74
2022/01/24 12:02:57;;;;;;;56.50;32.85;;;;;;;5.49;86.89;103552.19;5088916;28;20491;-74
2022/01/24 12:05:31;;;;;;;55.35;30.63;;;;;;;5.50;87.39;103548.78;5101641;28;20030;-74
2022/01/24 12:08:03;;;;;;;59.83;32.30;;;;;;;5.46;87.32;103547.63;5096995;28;20028;-73
2022/01/24 12:13:13;;;;;;;57.60;32.30;;;;;;;5.49;86.51;103541.72;5105266;27;20043;-73
2022/01/24 12:15:41;;;;;;;52.58;30.23;;;;;;;5.59;86.12;103549.53;5102750;27;20089;-72
2022/01/24 12:18:09;;;;;;;62.97;35.05;;;;;;;5.58;87.24;103547.69;5098551;28;20020;-73
2022/01/24 12:20:34;;;;;;;57.03;33.33;;;;;;;5.60;87.86;103545.22;5109129;27;20364;-74
2022/01/24 12:23:19;;;;;;;62.78;33.03;;;;;;;5.59;86.33;103536.47;5107871;28;20049;-74
2022/01/24 12:25:54;;;;;;;60.03;32.22;;;;;;;5.60;86.55;103534.75;5099095;28;20104;-74
2022/01/24 12:28:21;;;;;;;59.22;32.55;;;;;;;5.66;85.68;103535.28;5074815;28;20038;-74
2022/01/24 12:31:10;;;;;;;56.05;32.67;;;;;;;5.65;86.56;103533.44;5111275;27;20076;-74
2022/01/24 12:33:43;;;;;;;55.45;31.92;;;;;;;5.67;86.75;103535.38;5079212;28;20028;-73
2022/01/24 12:36:10;;;;;;;53.17;30.65;;;;;;;5.65;86.37;103533.44;5104496;28;20031;-73
2022/01/24 12:38:48;;;;;;;58.08;32.45;;;;;;;5.61;86.91;103532.28;5105149;27;20036;-73
2022/01/24 12:41:26;;;;;;;55.75;32.10;;;;;;;5.65;87.63;103531.72;5104526;27;20031;-72
2022/01/24 12:43:57;;;;;;;57.70;32.60;;;;;;;5.60;86.52;103530.44;5105591;27;20031;-73
2022/01/24 12:46:26;;;;;;;55.92;31.17;;;;;;;5.63;87.36;103530.72;5081636;28;20022;-73
2022/01/24 12:48:52;;;;;;;60.47;32.97;;;;;;;5.61;86.66;103527.03;5084118;28;20028;-73
2022/01/24 12:51:23;;;;;;;60.10;32.70;;;;;;;5.62;87.63;103534.09;5108193;28;20019;-75
2022/01/24 12:53:52;;;;;;;56.83;32.53;;;;;;;5.57;85.68;103519.75;5097544;28;20498;-74
2022/01/24 12:56:27;;;;;;;63.50;34.70;;;;;;;5.56;86.81;103518.84;5099393;28;20039;-74
2022/01/24 12:58:53;;;;;;;56.83;31.52;;;;;;;5.48;86.52;103519.00;5100044;28;20092;-74
2022/01/24 13:01:25;;;;;;;56.83;33.63;;;;;;;5.37;86.58;103516.47;5096507;28;20467;-74
2022/01/24 13:04:04;;;;;;;58.70;32.10;;;;;;;5.41;87.75;103515.00;5079167;28;20123;-73
2022/01/24 13:06:32;;;;;;;62.92;33.08;;;;;;;5.38;87.50;103506.91;5111943;27;20040;-74
2022/01/24 13:09:03;;;;;;;55.35;31.38;;;;;;;5.39;87.29;103509.66;5101949;27;20502;-74